Flight Track Log - Related Links

Times and Time Zones

All times are in EDT time to prevent confusion due to time zone crossing. See the EJA922 flight status page for this flight to view local times or setup timezone preferences in your user account.

Time Position Orientation Groundspeed Altitude Reporting Facility
EDT Latitude Longitude Course Direction KTS MPH feet Rate Location/Type
Thu 05:02:49 PM 41.7667 -87.7333 246° West 168 193 2,100  Level Chicago TRACON
Thu 05:03:49 PM 41.7500 -87.7833 246° West 207 238 3,800 1,253 Climbing Chicago TRACON
Thu 05:04:20 PM 41.7475 -87.8208 265° West 209 241 4,000 129 Climbing Chicago Center
Thu 05:05:22 PM 41.7536 -87.8967 276° West 208 239 4,000 1,790 Level Chicago Center
Thu 05:06:24 PM 41.7592 -87.9753 275° West 211 243 7,700 3,387 Climbing Chicago Center
Thu 05:07:26 PM 41.7956 -88.0433 306° West 242 278 11,000 2,274 Climbing Chicago Center
Thu 05:08:28 PM 41.8119 -88.1417 283° West 276 318 12,400 1,306 Climbing Chicago Center
Thu 05:09:30 PM 41.8083 -88.2850 268° West 319 367 13,700 1,403 Climbing Chicago Center
Thu 05:10:32 PM 41.8061 -88.4128 269° West 340 391 15,300 1,548 Climbing Chicago Center
Thu 05:11:34 PM 41.8025 -88.5389 268° West 342 394 16,900 1,645 Climbing Chicago Center
Thu 05:12:36 PM 41.7992 -88.6697 268° West 351 404 18,700 1,680 Climbing Chicago Center
Thu 05:13:39 PM 41.7936 -88.8281 267° West 357 411 20,400 1,536 Climbing Chicago Center
Thu 05:14:41 PM 41.7764 -88.9558 260° West 352 405 21,900 1,452 Climbing Chicago Center
Thu 05:15:43 PM 41.7586 -89.0892 260° West 363 418 23,400 1,452 Climbing Chicago Center
Thu 05:16:45 PM 41.7411 -89.2267 260° West 374 430 24,900 1,548 Climbing Chicago Center
Thu 05:17:47 PM 41.7219 -89.3642 259° West 375 432 26,600 1,597 Climbing Chicago Center
Thu 05:18:49 PM 41.7011 -89.5219 260° West 362 417 28,200 1,210 Climbing Chicago Center
Thu 05:19:51 PM 41.6850 -89.6419 260° West 373 429 29,100 1,113 Climbing Chicago Center
Thu 05:20:53 PM 41.6606 -89.8089 259° West 381 438 30,500 1,597 Climbing Chicago Center
Thu 05:21:55 PM 41.6386 -89.9481 258° West 383 441 32,400 1,584 Climbing Chicago Center
Thu 05:22:58 PM 41.6161 -90.0817 257° West 374 430 33,800 1,392 Climbing Chicago Center
Thu 05:24:00 PM 41.5950 -90.2175 258° West 373 429 35,300 1,694 Climbing Chicago Center
Thu 05:25:02 PM 41.5706 -90.3561 257° West 383 441 37,300 1,694 Climbing Chicago Center
Thu 05:26:04 PM 41.5497 -90.4850 258° West 368 423 38,800 1,500 Climbing Chicago Center
Thu 05:27:06 PM 41.5242 -90.6347 257° West 349 402 40,400 1,161 Climbing Chicago Center
Thu 05:28:08 PM 41.5028 -90.7611 257° West 349 402 41,200 629 Climbing Chicago Center
Thu 05:29:10 PM 41.4814 -90.8869 257° West 349 402 41,700 484 Climbing Chicago Center
Thu 05:30:12 PM 41.4597 -91.0172 258° West 353 406 42,200 387 Climbing Chicago Center
Thu 05:31:14 PM 41.4356 -91.1508 256° West 363 418 42,500 288 Climbing Chicago Center
Thu 05:32:17 PM 41.4114 -91.2858 257° West 372 428 42,800 192 Climbing Chicago Center
Thu 05:33:19 PM 41.3842 -91.4511 258° West 383 441 42,900 97 Climbing Chicago Center
Thu 05:34:21 PM 41.3586 -91.5958 257° West 398 458 43,000 48 Climbing Chicago Center
Thu 05:35:23 PM 41.3322 -91.7428 257° West 408 470 43,000  Level Chicago Center
Thu 05:36:25 PM 41.3042 -91.8922 256° West 417 480 43,000  Level Chicago Center
Thu 05:37:27 PM 41.2714 -92.0756 257° West 426 490 43,000  Level Chicago Center
Thu 05:38:29 PM 41.2419 -92.2311 256° West 435 501 43,000  Level Chicago Center
Thu 05:39:31 PM 41.2144 -92.3814 256° West 437 503 43,000  Level Chicago Center
Thu 05:40:33 PM 41.1853 -92.5392 256° West 442 509 43,000  Level Chicago Center
Thu 05:41:36 PM 41.1494 -92.7275 256° West 443 510 43,000  Level Chicago Center
Thu 05:42:38 PM 41.1194 -92.8867 256° West 448 516 43,000  Level Chicago Center
Thu 05:43:40 PM 41.0892 -93.0431 256° West 445 512 43,000  Level Chicago Center
Thu 05:44:42 PM 41.0581 -93.2017 255° West 449 517 43,000  Level Chicago Center
Thu 05:45:44 PM 41.0319 -93.3611 258° West 449 517 43,000  Level Chicago Center
Thu 05:46:46 PM 40.9992 -93.5525 257° West 450 518 43,000  Level Chicago Center
Thu 05:47:48 PM 40.9728 -93.7128 258° West 451 519 43,000  Level Chicago Center
Thu 05:48:50 PM 40.9467 -93.8722 258° West 449 517 43,000  Level Chicago Center
Thu 05:49:52 PM 40.9192 -94.0319 257° West 451 519 43,000  Level Chicago Center
Thu 05:50:54 PM 40.8864 -94.2222 257° West 448 516 43,000  Level Chicago Center
Thu 05:51:57 PM 40.8583 -94.3814 257° West 449 517 43,000  Level Chicago Center
Thu 05:53:07 PM 40.8222 -94.5758 256° West 454 522 43,000  Level Minneapolis Center
Thu 05:54:09 PM 40.7961 -94.7353 258° West 450 518 43,000  Level Minneapolis Center
Thu 05:55:10 PM 40.7658 -94.8997 256° West 455 524 43,000  Level Minneapolis Center
Thu 05:56:12 PM 40.7361 -95.0631 257° West 458 527 43,000  Level Minneapolis Center
Thu 05:57:14 PM 40.7064 -95.2281 257° West 460 529 43,000  Level Minneapolis Center
Thu 05:58:16 PM 40.6756 -95.3928 256° West 462 532 43,000  Level Minneapolis Center
Thu 05:59:18 PM 40.6453 -95.5592 257° West 464 534 43,000  Level Minneapolis Center
Thu 06:00:20 PM 40.6083 -95.7544 256° West 459 528 43,000  Level Minneapolis Center
Thu 06:01:22 PM 40.5775 -95.9206 256° West 464 534 43,000  Level Minneapolis Center
Thu 06:02:24 PM 40.5453 -96.0847 256° West 463 533 43,000  Level Minneapolis Center
Thu 06:03:26 PM 40.5147 -96.2517 257° West 466 536 43,000  Level Minneapolis Center
Thu 06:04:27 PM 40.4819 -96.4192 256° West 471 542 43,000  Level Minneapolis Center
Thu 06:05:29 PM 40.4492 -96.5864 256° West 472 543 43,000  Level Minneapolis Center
Thu 06:06:31 PM 40.4158 -96.7539 255° West 473 544 43,000  Level Minneapolis Center
Thu 06:07:33 PM 40.3756 -96.9547 255° West 474 545 43,000  Level Minneapolis Center
Thu 06:08:35 PM 40.3422 -97.1228 255° West 475 547 43,000  Level Minneapolis Center
Thu 06:09:37 PM 40.3078 -97.2922 255° West 479 551 43,000  Level Minneapolis Center
Thu 06:10:39 PM 40.2767 -97.4500 256° West 478 550 43,000  Level Minneapolis Center
Thu 06:11:40 PM 40.2408 -97.6197 255° West 481 554 43,000  Level Minneapolis Center
Thu 06:12:42 PM 40.1981 -97.8244 255° West 484 557 43,000  Level Minneapolis Center
Thu 06:13:44 PM 40.1622 -97.9953 255° West 485 558 43,000  Level Minneapolis Center
Thu 06:14:46 PM 40.1261 -98.1675 255° West 488 562 43,000  Level Minneapolis Center
Thu 06:15:48 PM 40.0894 -98.3378 254° West 487 560 43,000  Level Minneapolis Center
Thu 06:16:50 PM 40.0531 -98.5111 255° West 489 563 43,000  Level Minneapolis Center
Thu 06:17:52 PM 40.0150 -98.6839 254° West 493 567 43,000  Level Minneapolis Center
Thu 06:18:54 PM 39.9778 -98.8550 254° West 491 565 43,000  Level Minneapolis Center
Thu 06:19:55 PM 39.9394 -99.0283 254° West 494 568 43,000  Level Minneapolis Center
Thu 06:20:57 PM 39.8944 -99.2353 254° West 494 568 43,000  Level Minneapolis Center
Thu 06:22:08 PM 39.8558 -99.4067 254° West 494 568 43,000  Level Denver Center
Thu 06:23:10 PM 39.8094 -99.6111 254° West 490 564 43,000  Level Denver Center
Thu 06:24:12 PM 39.7706 -99.7831 254° West 493 567 43,000  Level Denver Center
Thu 06:25:14 PM 39.7294 -99.9617 253° West 492 566 43,000  Level Denver Center
Thu 06:26:16 PM 39.6919 -100.1264 254° West 495 570 43,000  Level Denver Center
Thu 06:27:18 PM 39.6472 -100.3172 253° West 494 568 43,000  Level Denver Center
Thu 06:28:20 PM 39.6089 -100.4803 253° West 494 568 43,000  Level Denver Center
Thu 06:29:22 PM 39.5697 -100.6453 253° West 498 573 43,000  Level Denver Center
Thu 06:30:24 PM 39.5242 -100.8378 253° West 499 574 43,000  Level Denver Center
Thu 06:31:26 PM 39.4850 -101.0028 253° West 499 574 43,000  Level Denver Center
Thu 06:32:27 PM 39.4389 -101.1967 253° West 504 580 43,000  Level Denver Center
Thu 06:33:29 PM 39.3975 -101.3611 252° West 503 579 43,000  Level Denver Center
Thu 06:34:31 PM 39.3503 -101.5533 252° West 503 579 43,000  Level Denver Center
Thu 06:35:33 PM 39.3111 -101.7156 253° West 503 579 43,000  Level Denver Center
Thu 06:36:35 PM 39.2633 -101.9067 252° West 502 578 43,000  Level Denver Center
Thu 06:37:37 PM 39.2231 -102.0697 252° West 500 575 43,000  Level Denver Center
Thu 06:38:39 PM 39.1750 -102.2594 252° West 500 575 43,000  Level Denver Center
Thu 06:39:41 PM 39.1328 -102.4214 251° West 499 574 43,000  Level Denver Center
Thu 06:40:43 PM 39.0847 -102.6106 252° West 501 577 43,000  Level Denver Center
Thu 06:41:45 PM 39.0394 -102.7839 251° West 501 577 43,000  Level Denver Center
Thu 06:42:46 PM 38.9958 -102.9525 252° West 498 573 43,000  Level Denver Center
Thu 06:43:48 PM 38.9519 -103.1206 251° West 496 571 43,000  Level Denver Center
Thu 06:44:50 PM 38.9081 -103.2878 251° West 494 568 43,000  Level Denver Center
Thu 06:45:52 PM 38.8639 -103.4553 251° West 495 570 43,000  Level Denver Center
Thu 06:46:54 PM 38.8172 -103.6319 251° West 492 566 43,000  Level Denver Center
Thu 06:47:55 PM 38.7747 -103.7900 251° West 493 567 43,000  Level Denver Center
Thu 06:48:57 PM 38.7244 -103.9744 251° West 492 566 43,000  Level Denver Center
Thu 06:49:59 PM 38.6758 -104.1542 251° West 497 572 43,000  Level Denver Center
Thu 06:51:01 PM 38.6303 -104.3197 251° West 495 570 43,000  Level Denver Center
Thu 06:52:03 PM 38.5847 -104.4847 251° West 492 566 43,000  Level Denver Center
Thu 06:53:04 PM 38.5394 -104.6489 251° West 489 563 43,000  Level Denver Center
Thu 06:54:06 PM 38.4942 -104.8119 251° West 487 560 43,000  Level Denver Center
Thu 06:55:08 PM 38.4481 -104.9769 250° West 492 566 43,000 48 Level Denver Center
Thu 06:56:10 PM 38.4025 -105.1386 250° West 485 558 43,100  Climbing Denver Center
Thu 06:57:11 PM 38.3461 -105.3342 250° West 490 564 43,000 -49 Descending Denver Center
Thu 06:58:13 PM 38.3025 -105.4883 250° West 489 563 43,000  Level Denver Center
Thu 06:59:15 PM 38.2572 -105.6450 250° West 492 566 43,000  Level Denver Center
Thu 07:00:16 PM 38.2042 -105.8286 250° West 496 571 43,000  Level Denver Center
Thu 07:01:18 PM 38.1575 -105.9861 249° West 498 573 43,000  Level Denver Center
Thu 07:02:20 PM 38.1019 -106.1753 250° West 498 573 43,000  Level Denver Center
Thu 07:03:22 PM 38.0569 -106.3289 250° West 500 575 43,000  Level Denver Center
Thu 07:04:23 PM 38.0003 -106.5183 249° West 502 578 43,000  Level Denver Center
Thu 07:05:25 PM 37.9508 -106.6817 249° West 500 575 43,000  Level Denver Center
Thu 07:06:27 PM 37.9028 -106.8403 249° West 504 580 43,000  Level Denver Center
Thu 07:07:29 PM 37.8472 -107.0239 249° West 500 575 43,000  Level Denver Center
Thu 07:08:31 PM 37.8014 -107.1739 249° West 496 571 43,000  Level Denver Center
Thu 07:09:32 PM 37.7458 -107.3558 249° West 498 573 43,000  Level Denver Center
Thu 07:10:34 PM 37.6975 -107.5097 248° West 494 568 43,000  Level Denver Center
Thu 07:11:36 PM 37.6417 -107.6914 249° West 497 572 43,000  Level Denver Center
Thu 07:12:38 PM 37.5933 -107.8478 249° West 499 574 43,000  Level Denver Center
Thu 07:13:39 PM 37.5433 -108.0044 248° West 504 580 43,000  Level Denver Center
Thu 07:14:41 PM 37.4861 -108.1886 249° West 505 581 43,000  Level Denver Center
Thu 07:15:43 PM 37.4361 -108.3442 248° West 503 579 43,000  Level Denver Center
Thu 07:16:44 PM 37.3775 -108.5286 248° West 509 586 43,000  Level Denver Center
Thu 07:17:46 PM 37.3272 -108.6858 248° West 508 585 43,000  Level Denver Center
Thu 07:18:48 PM 37.2667 -108.8689 247° West 508 585 43,000  Level Denver Center
Thu 07:19:50 PM 37.2161 -109.0275 248° West 511 588 43,000  Level Denver Center
Thu 07:20:52 PM 37.1547 -109.2133 248° West 517 595 43,000  Level Denver Center
Thu 07:21:53 PM 37.1028 -109.3731 248° West 519 597 43,000  Level Denver Center
Thu 07:22:55 PM 37.0403 -109.5611 247° West 525 604 43,000  Level Denver Center
Thu 07:24:57 PM 36.9311 -109.8764 247° West 522 601 43,000  Level Los Angeles Center
Thu 07:25:59 PM 36.8747 -110.0436 247° West 523 602 43,000  Level Los Angeles Center
Thu 07:27:02 PM 36.8072 -110.2444 247° West 523 602 43,000  Level Los Angeles Center
Thu 07:28:04 PM 36.7503 -110.4106 247° West 522 601 43,000  Level Los Angeles Center
Thu 07:29:06 PM 36.6939 -110.5767 247° West 521 600 43,000  Level Los Angeles Center
Thu 07:30:08 PM 36.6386 -110.7403 247° West 521 600 43,000  Level Denver Center
Thu 07:31:10 PM 36.5822 -110.9061 247° West 520 598 43,000  Level Denver Center
Thu 07:32:12 PM 36.5253 -111.0717 247° West 520 598 43,000  Level Denver Center
Thu 07:33:13 PM 36.4536 -111.2694 246° West 522 601 43,000  Level Denver Center
Thu 07:34:15 PM 36.3956 -111.4339 246° West 520 598 43,000  Level Denver Center
Thu 07:35:17 PM 36.3389 -111.5967 247° West 517 595 43,000  Level Denver Center
Thu 07:36:19 PM 36.2808 -111.7606 246° West 518 596 43,000  Level Denver Center
Thu 07:37:21 PM 36.2222 -111.9236 246° West 518 596 43,000  Level Denver Center
Thu 07:38:24 PM 36.1575 -112.1036 246° West 525 604 43,000  Level Los Angeles Center
Thu 07:39:26 PM 36.0981 -112.2664 246° West 523 602 43,000  Level Los Angeles Center
Thu 07:40:29 PM 36.0322 -112.4461 246° West 519 597 43,000  Level Los Angeles Center
Thu 07:41:30 PM 35.9722 -112.6097 246° West 522 601 43,000  Level Los Angeles Center
Thu 07:42:32 PM 35.9097 -112.7803 246° West 520 598 43,000  Level Los Angeles Center
Thu 07:43:34 PM 35.8506 -112.9408 246° West 522 601 43,000  Level Los Angeles Center
Thu 07:44:36 PM 35.7908 -113.1022 246° West 524 603 43,000  Level Los Angeles Center
Thu 07:45:38 PM 35.7303 -113.2631 245° Southwest 526 605 43,000  Level Los Angeles Center
Thu 07:46:40 PM 35.6578 -113.4556 245° Southwest 525 604 43,000  Level Los Angeles Center
Thu 07:47:43 PM 35.5956 -113.6156 244° Southwest 525 604 43,000  Level Los Angeles Center
Thu 07:48:45 PM 35.5308 -113.7750 244° Southwest 527 606 43,000  Level Los Angeles Center
Thu 07:49:47 PM 35.4664 -113.9336 244° Southwest 525 604 43,000  Level Los Angeles Center
Thu 07:50:49 PM 35.3881 -114.1222 243° Southwest 528 608 43,000  Level Los Angeles Center
Thu 07:51:51 PM 35.3233 -114.2817 244° Southwest 523 602 43,000  Level Los Angeles Center
Thu 07:52:53 PM 35.2567 -114.4417 243° Southwest 523 602 43,000  Level Los Angeles Center
Thu 07:53:55 PM 35.1911 -114.6022 243° Southwest 526 605 43,000  Level Los Angeles Center
Thu 07:54:57 PM 35.1222 -114.7656 243° Southwest 535 616 43,000  Level Los Angeles Center
Thu 07:55:59 PM 35.0556 -114.9258 243° Southwest 530 610 43,000  Level Los Angeles Center
Thu 07:57:01 PM 34.9881 -115.0861 243° Southwest 530 610 43,000  Level Los Angeles Center
Thu 07:58:04 PM 34.9069 -115.2772 243° Southwest 528 608 43,000  Level Los Angeles Center
Thu 07:59:06 PM 34.8386 -115.4389 243° Southwest 533 613 43,000  Level Los Angeles Center
Thu 08:00:08 PM 34.7797 -115.5767 243° Southwest 532 612 43,000 -629 Level Los Angeles Center
Thu 08:01:10 PM 34.6978 -115.7689 243° Southwest 534 615 41,700 -1,548 Descending Los Angeles Center
Thu 08:02:12 PM 34.6281 -115.9281 242° Southwest 533 613 39,800 -2,323 Descending Los Angeles Center
Thu 08:03:14 PM 34.5600 -116.0872 243° Southwest 532 612 36,900 -3,000 Descending Los Angeles Center
Thu 08:04:16 PM 34.4914 -116.2444 242° Southwest 528 608 33,600 -3,145 Descending Los Angeles Center
Thu 08:05:18 PM 34.4203 -116.4069 242° Southwest 541 623 30,400 -2,903 Descending Los Angeles Center
Thu 08:06:20 PM 34.3469 -116.5719 242° Southwest 553 636 27,600 -2,880 Descending Los Angeles Center
Thu 08:07:23 PM 34.2597 -116.7669 242° Southwest 546 628 24,400 -2,736 Descending Los Angeles Center
Thu 08:08:25 PM 34.2014 -116.8972 242° Southwest 445 512 21,900 -2,226 Descending Los Angeles Center
Thu 08:09:27 PM 34.1519 -117.0108 242° Southwest 381 438 19,800 -2,089 Descending Los Angeles Center
Thu 08:10:17 PM 34.1167 -117.1167 248° West 345 397 18,000 -1,473 Descending Southern California TRACON
Thu 08:11:17 PM 34.0667 -117.2000 234° Southwest 333 383 17,100 -900 Descending Southern California TRACON
Thu 08:12:17 PM 34.0500 -117.3167 260° West 337 388 16,200 -1,240 Descending Southern California TRACON
Thu 08:13:18 PM 34.0333 -117.4333 260° West 327 376 14,600 -1,438 Descending Southern California TRACON
Thu 08:14:18 PM 34.0167 -117.5333 259° West 310 357 13,300 -1,250 Descending Southern California TRACON
Thu 08:15:18 PM 34.0167 -117.6333 270° West 378 435 12,100 -1,400 Descending Southern California TRACON
Thu 08:16:18 PM 34.0000 -117.7333 259° West 284 327 10,500 -1,550 Descending Southern California TRACON
Thu 08:17:18 PM 33.9833 -117.8333 259° West 290 334 9,000 -1,488 Descending Southern California TRACON
Thu 08:18:19 PM 33.9833 -117.9167 270° West 248 285 7,500 -1,289 Descending Southern California TRACON
Thu 08:19:19 PM 33.9833 -118.0000 270° West 203 234 6,400 -1,059 Descending Southern California TRACON
Thu 08:20:18 PM 33.9667 -118.0667 253° West 197 227 5,400 -1,000 Descending Southern California TRACON
Thu 08:21:19 PM 33.9667 -118.1167 270° West 187 215 4,400 -894 Descending Southern California TRACON
Thu 08:21:52 PM 33.9622 -118.1456 259° West 191 220 4,000 -953 Descending Los Angeles Center
Thu 08:23:06 PM 33.9533 -118.2264 262° West 179 206 2,700 -971 Descending Los Angeles Center
Thu 08:24:08 PM 33.9483 -118.2783 263° West 168 193 1,800 -726 Descending Los Angeles Center
Thu 08:25:10 PM 33.9436 -118.3228 263° West 149 171 1,200 -629 Descending Los Angeles Center
Thu 08:26:12 PM 33.9397 -118.3606 263° West 127 146 500 -484 Descending Los Angeles Center
Thu 08:27:14 PM 33.9358 -118.4033 264° West 121 139 200 -290 Descending Los Angeles Center
Thu 08:29:00 PM 33.9333 -118.4000 259° West  Level FlightAware Approximate
Thu 08:36:00 PM 34.2007 -118.3587 259° West  Level Estimated
Thu 08:37:00 PM 34.2007 -118.3587 259° West  Level Estimated
Thu 08:38:00 PM 34.2007 -118.3587 259° West  Level Estimated
Thu 08:39:00 PM 34.2007 -118.3587 259° West  Level Estimated
Thu 08:40:00 PM 34.2007 -118.3587 259° West  Level Estimated
Thu 08:41:00 PM 34.2007 -118.3587 259° West  Level Estimated

Login

Don't have an account? Register now (free) for customized features, flight alerts, and more!